createdAt,value
2023-02-27T00:02:19.020Z,9.25
2023-02-27T00:04:45.618Z,8.38
2023-02-27T00:07:12.618Z,9.63
2023-02-27T00:09:41.906Z,10.77
2023-02-27T00:12:09.436Z,10.05
2023-02-27T00:14:36.078Z,9.48
2023-02-27T00:17:02.698Z,12.85
2023-02-27T00:19:29.271Z,10.13
2023-02-27T00:21:55.790Z,9.82
2023-02-27T00:24:22.621Z,11.70
2023-02-27T00:26:49.198Z,10.98
2023-02-27T00:29:15.733Z,11.73
2023-02-27T00:31:42.314Z,9.00
2023-02-27T00:34:09.473Z,9.88
2023-02-27T00:36:35.987Z,9.80
2023-02-27T00:39:02.566Z,10.13
2023-02-27T00:41:29.166Z,11.20
2023-02-27T00:43:55.783Z,9.48
2023-02-27T00:46:23.159Z,10.57
2023-02-27T00:48:49.820Z,12.73
2023-02-27T00:51:16.367Z,11.30
2023-02-27T00:53:43.095Z,9.43
2023-02-27T00:56:09.675Z,13.55
2023-02-27T00:58:36.186Z,10.70
2023-02-27T01:01:02.876Z,10.50
2023-02-27T01:03:29.597Z,17.60
2023-02-27T01:05:56.155Z,11.93
2023-02-27T01:08:22.669Z,11.65
2023-02-27T01:10:49.142Z,14.27
2023-02-27T01:13:15.683Z,12.77
2023-02-27T01:15:42.286Z,18.50
2023-02-27T01:18:08.858Z,14.02
2023-02-27T01:20:35.405Z,16.52
2023-02-27T01:23:02.039Z,11.90
2023-02-27T01:25:30.629Z,15.98
2023-02-27T01:27:57.314Z,16.73
2023-02-27T01:30:23.894Z,12.90
2023-02-27T01:32:50.408Z,13.38
2023-02-27T01:35:18.033Z,14.23
2023-02-27T01:37:44.760Z,10.38
2023-02-27T01:40:12.157Z,16.63
2023-02-27T01:42:38.761Z,13.55
2023-02-27T01:45:11.398Z,14.18
2023-02-27T01:47:55.795Z,14.85
2023-02-27T01:50:22.986Z,13.53
2023-02-27T01:52:54.779Z,16.23
2023-02-27T01:55:23.022Z,15.30
2023-02-27T01:57:51.177Z,15.15
2023-02-27T02:00:18.577Z,12.85
2023-02-27T02:03:09.857Z,12.75
2023-02-27T02:05:36.386Z,12.63
2023-02-27T02:08:04.619Z,13.35
2023-02-27T02:10:33.045Z,16.13
2023-02-27T02:13:00.334Z,14.73
2023-02-27T02:15:39.437Z,13.73
2023-02-27T02:18:27.142Z,15.73
2023-02-27T02:21:21.647Z,12.20
2023-02-27T02:24:20.841Z,12.68
2023-02-27T02:27:03.885Z,13.32
2023-02-27T02:30:01.351Z,13.48
2023-02-27T02:32:52.651Z,14.85
2023-02-27T02:35:53.234Z,11.65
2023-02-27T02:38:41.583Z,13.43
2023-02-27T02:41:20.365Z,12.57
2023-02-27T02:44:09.056Z,14.40
2023-02-27T02:46:45.765Z,14.48
2023-02-27T02:49:26.556Z,12.55
2023-02-27T02:52:09.466Z,14.85
2023-02-27T02:54:44.846Z,13.80
2023-02-27T02:57:30.694Z,13.80
2023-02-27T03:00:04.431Z,12.88
2023-02-27T03:02:38.663Z,15.00
2023-02-27T03:05:15.217Z,13.00
2023-02-27T03:07:52.211Z,14.85
2023-02-27T03:10:37.596Z,15.65
2023-02-27T03:15:58.609Z,11.85
2023-02-27T03:18:37.327Z,12.50
2023-02-27T03:21:17.094Z,15.13
2023-02-27T03:23:47.222Z,36.55
2023-02-27T03:26:21.981Z,20.30
2023-02-27T03:29:04.820Z,21.55
2023-02-27T03:31:43.670Z,20.50
2023-02-27T03:34:26.474Z,15.63
2023-02-27T03:36:58.368Z,12.05
2023-02-27T03:39:48.145Z,12.50
2023-02-27T03:42:29.186Z,10.18
2023-02-27T03:45:18.788Z,11.73
2023-02-27T03:47:45.707Z,12.85
2023-02-27T03:50:12.872Z,11.98
2023-02-27T03:52:40.321Z,10.85
2023-02-27T03:55:19.296Z,11.40
2023-02-27T03:57:48.893Z,16.77
2023-02-27T04:00:21.069Z,13.00
2023-02-27T04:02:52.771Z,11.57
2023-02-27T04:05:20.975Z,12.75
2023-02-27T04:07:54.216Z,12.05
2023-02-27T04:11:01.295Z,12.75
2023-02-27T04:13:47.159Z,10.43
2023-02-27T04:17:04.515Z,8.90
2023-02-27T04:19:45.737Z,10.95
2023-02-27T04:22:18.081Z,11.02
2023-02-27T04:25:10.441Z,9.23
2023-02-27T04:27:45.869Z,11.02
2023-02-27T04:31:03.601Z,12.98
2023-02-27T04:33:48.773Z,11.15
2023-02-27T04:36:42.608Z,10.93
2023-02-27T04:39:18.098Z,9.55
2023-02-27T04:41:47.558Z,11.48
2023-02-27T04:44:16.257Z,9.52
2023-02-27T04:46:47.059Z,11.63
2023-02-27T04:49:19.506Z,12.07
2023-02-27T04:51:54.288Z,11.13
2023-02-27T04:54:45.908Z,11.43
2023-02-27T04:57:19.645Z,10.95
2023-02-27T04:59:51.696Z,11.07
2023-02-27T05:02:25.114Z,11.57
2023-02-27T05:04:57.024Z,8.77
2023-02-27T05:07:30.672Z,11.75
2023-02-27T05:10:05.090Z,16.15
2023-02-27T05:12:52.828Z,11.65
2023-02-27T05:15:33.067Z,7.53
2023-02-27T05:18:06.786Z,9.52
2023-02-27T05:20:49.332Z,11.45
2023-02-27T05:23:24.816Z,12.48
2023-02-27T05:25:59.359Z,8.02
2023-02-27T05:28:42.309Z,9.25
2023-02-27T05:31:27.126Z,10.18
2023-02-27T05:34:10.172Z,8.50
2023-02-27T05:37:01.252Z,9.60
2023-02-27T05:39:31.575Z,10.32
2023-02-27T05:42:02.820Z,7.72
2023-02-27T05:44:34.404Z,8.88
2023-02-27T05:47:06.414Z,9.02
2023-02-27T05:49:42.284Z,9.35
2023-02-27T05:52:14.926Z,8.55
2023-02-27T05:54:48.751Z,9.50
2023-02-27T05:57:24.213Z,8.15
2023-02-27T05:59:59.769Z,10.32
2023-02-27T06:02:26.450Z,10.98
2023-02-27T06:04:53.142Z,8.07
2023-02-27T06:07:19.700Z,12.13
2023-02-27T06:09:46.406Z,8.40
2023-02-27T06:12:13.075Z,8.32
2023-02-27T06:14:39.586Z,11.60
2023-02-27T06:17:06.127Z,6.93
2023-02-27T06:19:32.657Z,10.80
2023-02-27T06:21:59.195Z,8.30
2023-02-27T06:24:26.791Z,9.98
2023-02-27T06:26:53.588Z,8.07
2023-02-27T06:29:20.195Z,11.38
2023-02-27T06:31:46.688Z,10.88
2023-02-27T06:34:13.297Z,8.50
2023-02-27T06:36:40.057Z,11.23
2023-02-27T06:39:06.753Z,8.38
2023-02-27T06:41:33.275Z,8.05
2023-02-27T06:43:59.824Z,9.48
2023-02-27T06:46:26.926Z,9.73
2023-02-27T06:48:53.713Z,8.98
2023-02-27T06:51:20.280Z,9.20
2023-02-27T06:53:46.766Z,10.52
2023-02-27T06:56:13.356Z,14.57
2023-02-27T06:58:39.895Z,9.52
2023-02-27T07:01:06.402Z,8.70
2023-02-27T07:03:33.033Z,6.95
2023-02-27T07:05:59.655Z,8.98
2023-02-27T07:08:26.239Z,7.65
2023-02-27T07:10:52.847Z,8.88
2023-02-27T07:13:19.949Z,6.75
2023-02-27T07:15:46.972Z,6.40
2023-02-27T07:18:13.669Z,10.23
2023-02-27T07:20:40.412Z,8.85
2023-02-27T07:23:06.990Z,7.60
2023-02-27T07:25:36.272Z,9.75
2023-02-27T07:28:03.033Z,9.00
2023-02-27T07:30:30.834Z,12.00
2023-02-27T07:32:57.391Z,8.52
2023-02-27T07:35:24.013Z,6.53
2023-02-27T07:37:50.617Z,6.07
2023-02-27T07:40:17.463Z,5.80
2023-02-27T07:42:44.096Z,9.48
2023-02-27T07:45:11.143Z,6.93
2023-02-27T07:47:37.717Z,7.57
2023-02-27T07:50:04.778Z,7.00
2023-02-27T07:52:31.644Z,8.38
2023-02-27T07:54:58.147Z,6.13
2023-02-27T07:57:24.704Z,5.72
2023-02-27T07:59:51.496Z,7.40
2023-02-27T08:02:18.031Z,6.05
2023-02-27T08:04:44.579Z,9.23
2023-02-27T08:07:11.120Z,6.28
2023-02-27T08:09:37.666Z,8.25
2023-02-27T08:12:04.691Z,7.65
2023-02-27T08:14:31.282Z,10.35
2023-02-27T08:16:57.810Z,10.77
2023-02-27T08:19:24.346Z,6.43
2023-02-27T08:21:50.979Z,3.28
2023-02-27T08:24:17.769Z,6.53
2023-02-27T08:26:44.540Z,6.97
2023-02-27T08:29:11.099Z,3.78
2023-02-27T08:31:38.030Z,6.22
2023-02-27T08:34:10.282Z,4.35
2023-02-27T08:36:37.721Z,9.18
2023-02-27T08:39:04.647Z,5.28
2023-02-27T08:41:31.160Z,10.02
2023-02-27T08:43:57.730Z,6.30
2023-02-27T08:46:24.458Z,7.68
2023-02-27T08:48:51.104Z,11.48
2023-02-27T08:51:17.697Z,6.95
2023-02-27T08:53:44.362Z,7.45
2023-02-27T08:56:11.105Z,4.75
2023-02-27T08:58:37.805Z,4.85
2023-02-27T09:01:04.421Z,6.60
2023-02-27T09:03:31.647Z,9.93
2023-02-27T09:05:58.334Z,5.53
2023-02-27T09:08:24.935Z,8.52
2023-02-27T09:10:51.520Z,6.88
2023-02-27T09:13:18.118Z,8.75
2023-02-27T09:15:47.581Z,5.68
2023-02-27T09:18:14.130Z,4.50
2023-02-27T09:20:41.575Z,8.10
2023-02-27T09:23:08.199Z,8.52
2023-02-27T09:25:35.077Z,5.20
2023-02-27T09:28:01.786Z,10.00
2023-02-27T09:30:28.415Z,14.75
2023-02-27T09:32:54.973Z,5.05
2023-02-27T09:35:22.065Z,7.15
2023-02-27T09:37:49.659Z,4.97
2023-02-27T09:40:25.440Z,7.18
2023-02-27T09:42:57.122Z,6.43
2023-02-27T09:45:30.077Z,8.02
2023-02-27T09:48:03.836Z,5.78
2023-02-27T09:50:40.783Z,5.68
2023-02-27T09:53:35.677Z,5.72
2023-02-27T09:56:09.629Z,14.82
2023-02-27T09:58:55.903Z,6.88
2023-02-27T10:01:34.124Z,4.55
2023-02-27T10:04:18.663Z,6.63
2023-02-27T10:06:52.933Z,5.60
2023-02-27T10:09:30.093Z,5.05
2023-02-27T10:12:22.145Z,7.57
2023-02-27T10:14:52.240Z,7.40
2023-02-27T10:17:23.367Z,5.15
2023-02-27T10:19:52.690Z,6.65
2023-02-27T10:22:31.395Z,7.75
2023-02-27T10:25:09.028Z,7.28
2023-02-27T10:27:45.588Z,8.20
2023-02-27T10:30:30.033Z,7.93
2023-02-27T10:33:12.734Z,9.07
2023-02-27T10:35:43.041Z,4.07
2023-02-27T10:38:15.028Z,8.40
2023-02-27T10:40:42.865Z,6.22
2023-02-27T10:43:13.311Z,8.65
2023-02-27T10:45:39.822Z,6.10
2023-02-27T10:48:06.663Z,6.28
2023-02-27T10:50:37.145Z,5.57
2023-02-27T10:53:07.948Z,7.25
2023-02-27T10:55:40.846Z,7.63
2023-02-27T10:58:07.620Z,4.72
2023-02-27T11:00:47.938Z,4.85
2023-02-27T11:03:20.985Z,6.40
2023-02-27T11:06:22.364Z,6.38
2023-02-27T11:09:10.808Z,4.53
2023-02-27T11:11:38.049Z,10.48
2023-02-27T11:14:28.058Z,5.85
2023-02-27T11:17:02.497Z,6.88
2023-02-27T11:19:37.592Z,6.00
2023-02-27T11:22:14.262Z,8.02
2023-02-27T11:24:41.541Z,6.45
2023-02-27T11:27:21.980Z,12.73
2023-02-27T11:30:27.097Z,5.90
2023-02-27T11:32:56.919Z,8.23
2023-02-27T11:35:39.222Z,12.38
2023-02-27T11:38:16.504Z,8.55
2023-02-27T11:40:51.166Z,7.28
2023-02-27T11:43:21.782Z,6.20
2023-02-27T11:46:13.632Z,6.72
2023-02-27T11:48:52.822Z,8.50
2023-02-27T11:51:56.870Z,6.93
2023-02-27T11:54:38.102Z,7.00
2023-02-27T11:57:20.636Z,6.90
2023-02-27T11:59:54.434Z,7.97
2023-02-27T12:02:48.482Z,7.53
2023-02-27T12:05:23.110Z,7.15
2023-02-27T12:08:14.406Z,7.68
2023-02-27T12:11:18.547Z,8.73
2023-02-27T12:13:51.147Z,5.97
2023-02-27T12:16:24.488Z,11.75
2023-02-27T12:19:00.126Z,7.32
2023-02-27T12:21:56.664Z,9.50
2023-02-27T12:24:23.267Z,6.47
2023-02-27T12:27:00.593Z,7.10
2023-02-27T12:29:38.142Z,8.43
2023-02-27T12:32:22.722Z,6.78
2023-02-27T12:35:11.311Z,9.85
2023-02-27T12:37:38.150Z,12.57
2023-02-27T12:40:12.745Z,8.30
2023-02-27T12:43:00.376Z,7.05
2023-02-27T12:45:55.156Z,7.55
2023-02-27T12:48:29.053Z,7.03
2023-02-27T12:51:12.473Z,7.00
2023-02-27T12:53:38.990Z,8.98
2023-02-27T12:56:19.622Z,7.50
2023-02-27T12:59:01.214Z,5.22
2023-02-27T13:01:27.981Z,5.57
2023-02-27T13:04:09.226Z,6.32
2023-02-27T13:06:50.039Z,10.60
2023-02-27T13:09:40.931Z,7.20
2023-02-27T13:12:07.459Z,7.30
2023-02-27T13:14:51.928Z,7.10
2023-02-27T13:17:43.391Z,7.72
2023-02-27T13:20:09.955Z,8.05
2023-02-27T13:22:40.903Z,6.80
2023-02-27T13:25:14.486Z,12.52
2023-02-27T13:27:52.539Z,6.35
2023-02-27T13:30:47.269Z,7.45
2023-02-27T13:33:45.946Z,7.95
2023-02-27T13:36:35.739Z,6.90
2023-02-27T13:39:02.740Z,7.93
2023-02-27T13:41:29.668Z,8.00
2023-02-27T13:44:20.047Z,7.68
2023-02-27T13:46:46.863Z,7.47
2023-02-27T13:49:27.008Z,6.15
2023-02-27T13:51:58.683Z,11.00
2023-02-27T13:54:43.376Z,8.07
2023-02-27T13:57:21.480Z,11.43
2023-02-27T13:59:55.011Z,6.85
2023-02-27T14:02:31.887Z,10.07
2023-02-27T14:05:03.219Z,9.02
2023-02-27T14:07:51.512Z,6.75
2023-02-27T14:10:28.665Z,8.48
2023-02-27T14:12:57.595Z,8.38
2023-02-27T14:15:24.051Z,9.07
2023-02-27T14:17:56.928Z,9.75
2023-02-27T14:20:30.518Z,7.45
2023-02-27T14:23:15.322Z,7.07
2023-02-27T14:25:45.520Z,10.52
2023-02-27T14:28:21.742Z,8.02
2023-02-27T14:30:54.383Z,6.53
2023-02-27T14:33:39.239Z,7.05
2023-02-27T14:36:09.578Z,9.02
2023-02-27T14:38:38.316Z,9.30
2023-02-27T14:41:14.879Z,7.32
2023-02-27T14:43:46.408Z,6.97
2023-02-27T14:46:22.104Z,7.53
2023-02-27T14:48:53.635Z,8.80
2023-02-27T14:51:21.242Z,7.07
2023-02-27T14:54:02.219Z,7.00
2023-02-27T14:56:29.641Z,9.75
2023-02-27T14:59:04.296Z,10.45
2023-02-27T15:01:35.586Z,6.22
2023-02-27T15:04:04.689Z,10.10
2023-02-27T15:06:44.024Z,6.80
2023-02-27T15:09:22.775Z,5.10
2023-02-27T15:12:03.470Z,6.97
2023-02-27T15:14:35.676Z,8.15
2023-02-27T15:17:02.920Z,7.88
2023-02-27T15:19:30.540Z,5.78
2023-02-27T15:21:59.939Z,6.72
2023-02-27T15:24:47.767Z,9.40
2023-02-27T15:27:22.853Z,6.78
2023-02-27T15:29:52.797Z,5.28
2023-02-27T15:32:29.570Z,6.22
2023-02-27T15:34:58.495Z,5.30
2023-02-27T15:37:28.869Z,8.27
2023-02-27T15:39:56.433Z,5.15
2023-02-27T15:42:41.812Z,7.40
2023-02-27T15:47:35.840Z,8.07
2023-02-27T15:50:26.484Z,8.90
2023-02-27T15:53:10.839Z,5.32
2023-02-27T15:55:40.978Z,5.65
2023-02-27T15:58:25.265Z,6.40
2023-02-27T16:01:00.913Z,7.77
2023-02-27T16:03:34.268Z,8.02
2023-02-27T16:06:01.492Z,6.75
2023-02-27T16:08:31.224Z,7.18
2023-02-27T16:10:58.229Z,7.90
2023-02-27T16:13:29.462Z,6.80
2023-02-27T16:16:03.899Z,8.27
2023-02-27T16:18:51.169Z,7.85
2023-02-27T16:21:20.559Z,5.53
2023-02-27T16:23:47.932Z,10.10
2023-02-27T16:26:28.599Z,8.77
2023-02-27T16:28:59.908Z,7.57
2023-02-27T16:31:30.929Z,6.15
2023-02-27T16:34:01.084Z,6.43
2023-02-27T16:36:33.020Z,6.47
2023-02-27T16:38:59.673Z,5.55
2023-02-27T16:41:28.016Z,7.47
2023-02-27T16:43:54.702Z,7.72
2023-02-27T16:46:21.679Z,5.85
2023-02-27T16:48:54.115Z,7.43
2023-02-27T16:51:27.359Z,9.02
2023-02-27T16:53:56.360Z,8.32
2023-02-27T16:56:37.313Z,13.05
2023-02-27T16:59:05.342Z,9.95
2023-02-27T17:01:34.118Z,9.80
2023-02-27T17:04:01.024Z,8.10
2023-02-27T17:06:28.036Z,9.35
2023-02-27T17:08:56.097Z,10.65
2023-02-27T17:11:22.799Z,10.07
2023-02-27T17:13:49.404Z,10.15
2023-02-27T17:16:16.186Z,8.82
2023-02-27T17:18:42.871Z,7.65
2023-02-27T17:21:09.420Z,9.43
2023-02-27T17:23:35.980Z,10.20
2023-02-27T17:26:02.567Z,9.65
2023-02-27T17:28:29.194Z,11.32
2023-02-27T17:30:55.873Z,8.70
2023-02-27T17:33:22.487Z,11.63
2023-02-27T17:35:49.229Z,9.48
2023-02-27T17:38:15.952Z,12.50
2023-02-27T17:40:42.525Z,10.05
2023-02-27T17:43:09.108Z,10.25
2023-02-27T17:45:35.661Z,10.45
2023-02-27T17:48:02.195Z,14.18
2023-02-27T17:50:28.823Z,8.75
2023-02-27T17:52:55.462Z,12.85
2023-02-27T17:55:22.023Z,10.60
2023-02-27T17:57:48.563Z,12.63
2023-02-27T18:00:15.802Z,12.07
2023-02-27T18:02:45.506Z,14.27
2023-02-27T18:05:12.223Z,17.13
2023-02-27T18:07:39.699Z,15.30
2023-02-27T18:10:08.992Z,15.93
2023-02-27T18:12:36.487Z,14.75
2023-02-27T18:15:04.144Z,14.55
2023-02-27T18:17:30.671Z,15.48
2023-02-27T18:19:58.104Z,17.08
2023-02-27T18:22:25.164Z,17.08
2023-02-27T18:24:55.719Z,16.90
2023-02-27T18:27:22.651Z,14.75
2023-02-27T18:29:50.243Z,15.10
2023-02-27T18:32:17.617Z,16.58
2023-02-27T18:34:47.283Z,21.15
2023-02-27T18:37:13.887Z,17.52
2023-02-27T18:39:42.274Z,21.40
2023-02-27T18:42:08.835Z,17.13
2023-02-27T18:44:35.835Z,18.48
2023-02-27T18:47:02.413Z,13.85
2023-02-27T18:49:28.924Z,13.35
2023-02-27T18:51:55.502Z,15.00
2023-02-27T18:54:22.029Z,12.85
2023-02-27T18:56:50.776Z,14.85
2023-02-27T18:59:17.604Z,15.50
2023-02-27T19:01:44.340Z,13.55
2023-02-27T19:04:10.976Z,16.52
2023-02-27T19:06:41.200Z,17.38
2023-02-27T19:09:10.706Z,15.10
2023-02-27T19:11:37.525Z,16.40
2023-02-27T19:14:06.863Z,13.00
2023-02-27T19:16:34.303Z,17.50
2023-02-27T19:19:02.237Z,17.73
2023-02-27T19:21:29.404Z,15.15
2023-02-27T19:23:56.415Z,17.00
2023-02-27T19:26:24.459Z,16.55
2023-02-27T19:28:53.782Z,14.80
2023-02-27T19:31:22.071Z,16.77
2023-02-27T19:33:48.815Z,15.50
2023-02-27T19:36:21.049Z,20.35
2023-02-27T19:38:48.191Z,16.85
2023-02-27T19:41:16.966Z,13.88
2023-02-27T19:43:44.188Z,17.75
2023-02-27T19:46:14.060Z,18.70
2023-02-27T19:48:41.314Z,20.85
2023-02-27T19:51:10.288Z,19.02
2023-02-27T19:53:38.847Z,18.98
2023-02-27T19:56:08.266Z,20.35
2023-02-27T19:58:36.258Z,17.77
2023-02-27T20:01:04.041Z,17.00
2023-02-27T20:03:30.736Z,16.55
2023-02-27T20:05:58.378Z,19.13
2023-02-27T20:08:25.084Z,18.45
2023-02-27T20:10:58.771Z,25.27
2023-02-27T20:13:25.459Z,21.08
2023-02-27T20:16:07.616Z,19.38
2023-02-27T20:18:35.961Z,22.58
2023-02-27T20:21:06.293Z,24.27
2023-02-27T20:23:34.742Z,18.33
2023-02-27T20:26:01.752Z,17.60
2023-02-27T20:28:28.495Z,18.38
2023-02-27T20:30:55.194Z,17.67
2023-02-27T20:33:21.778Z,19.42
2023-02-27T20:35:48.546Z,19.98
2023-02-27T20:38:17.078Z,17.95
2023-02-27T20:40:43.614Z,20.73
2023-02-27T20:43:10.186Z,19.55
2023-02-27T20:45:39.946Z,23.80
2023-02-27T20:48:07.134Z,25.95
2023-02-27T20:50:34.367Z,20.55
2023-02-27T20:53:01.011Z,19.25
2023-02-27T20:55:27.678Z,26.02
2023-02-27T20:57:54.163Z,17.73
2023-02-27T21:00:21.388Z,20.08
2023-02-27T21:02:47.912Z,22.15
2023-02-27T21:05:14.423Z,21.90
2023-02-27T21:07:40.926Z,19.83
2023-02-27T21:10:08.024Z,20.55
2023-02-27T21:12:34.580Z,22.17
2023-02-27T21:15:01.137Z,16.83
2023-02-27T21:17:27.739Z,17.70
2023-02-27T21:19:56.872Z,23.48
2023-02-27T21:22:23.694Z,20.63
2023-02-27T21:24:52.034Z,24.42
2023-02-27T21:27:21.353Z,21.27
2023-02-27T21:29:48.826Z,19.80
2023-02-27T21:32:15.748Z,24.02
2023-02-27T21:34:42.284Z,21.13
2023-02-27T21:37:10.643Z,22.38
2023-02-27T21:39:37.276Z,19.45
2023-02-27T21:42:04.051Z,23.35
2023-02-27T21:44:31.983Z,26.20
2023-02-27T21:46:58.696Z,21.48
2023-02-27T21:49:27.489Z,17.08
2023-02-27T21:51:57.443Z,19.13
2023-02-27T21:54:27.643Z,19.15
2023-02-27T21:56:54.164Z,20.60
2023-02-27T21:59:21.711Z,24.60
2023-02-27T22:01:48.720Z,17.95
2023-02-27T22:04:16.711Z,19.50
2023-02-27T22:06:46.654Z,22.35
2023-02-27T22:09:13.210Z,20.15
2023-02-27T22:11:41.007Z,20.40
2023-02-27T22:14:08.982Z,20.25
2023-02-27T22:16:35.877Z,20.38
2023-02-27T22:19:10.891Z,22.15
2023-02-27T22:24:05.011Z,25.77
2023-02-27T22:26:32.173Z,23.15
2023-02-27T22:28:59.875Z,22.90
2023-02-27T22:31:30.583Z,23.63
2023-02-27T22:34:01.745Z,20.55
2023-02-27T22:36:30.876Z,19.77
2023-02-27T22:38:57.879Z,19.92
2023-02-27T22:41:30.710Z,19.80
2023-02-27T22:43:58.880Z,18.13
2023-02-27T22:46:37.715Z,16.98
2023-02-27T22:49:07.537Z,18.05
2023-02-27T22:51:34.556Z,18.52
2023-02-27T22:54:03.171Z,20.73
2023-02-27T22:56:30.444Z,19.05
2023-02-27T22:58:57.479Z,19.85
2023-02-27T23:01:28.505Z,20.95
2023-02-27T23:03:57.972Z,19.17
2023-02-27T23:06:27.878Z,18.00
2023-02-27T23:08:54.587Z,17.95
2023-02-27T23:11:21.729Z,19.13
2023-02-27T23:13:51.265Z,18.10
2023-02-27T23:16:18.511Z,22.65
2023-02-27T23:18:56.574Z,19.48
2023-02-27T23:21:29.720Z,21.90
2023-02-27T23:23:58.110Z,19.77
2023-02-27T23:26:28.571Z,16.88
2023-02-27T23:28:56.228Z,22.02
2023-02-27T23:31:23.092Z,21.88
2023-02-27T23:33:50.180Z,19.15
2023-02-27T23:36:16.778Z,21.35
2023-02-27T23:38:46.457Z,21.85
2023-02-27T23:41:16.774Z,17.42
2023-02-27T23:43:44.835Z,22.85
2023-02-27T23:46:14.559Z,21.20
2023-02-27T23:48:43.099Z,23.55
2023-02-27T23:51:11.174Z,24.40
2023-02-27T23:53:40.352Z,21.83
2023-02-27T23:56:21.397Z,23.17
2023-02-27T23:58:52.296Z,20.65
